map of YHY home
YHY - Airport
Location
City:  Hay River, Northwest Territories, Canada
Name:Merlyn Carter Airport
ICAO:CYHY
IATA:YHY

Details
Type:Airport (Airfield)
Use:Public/Civil
Latitude:6050'23"N (60.839722)
Longitude:11546'58"W (-115.782777)
Elevation:541 ft (165 m)
Variation:17.00E (WMM2015v2 magnetic declination)
-0.16 annual change
Runways:2
Longest:6000 ft (1829 m), paved

Time
Time Zone:UTC-7 (DST-6)
Local Time:

Weather
METAR:CYHY 041400Z 15006KT 15SM FEW130 SCT240 M31/M35 A3034 RMK AC1CI2 SLP303
TAF:CYHY 041138Z 0412/0424 15006KT P6SM FEW230
BECMG 0415/0417 15010KT
RMK NXT FCST BY 041800Z

Related Locations
Nearby:
Farthest:YWKS: 10968 mi / 17652 km
Wilkins Runway (Casey), Upper Peterson Glacier, AQ

Find:

   beyond  
but within

Other Information
Maps:
NOTAMs:
Links:
Sources:

  
  • flag of Canada
  • flag of Northwest Territories
  

Airport Diagram

Airport diagram for YHY

Airport diagram PDF

Sectional Chart

Flight Planning
at skyvector.com

Satellite Image

Google Maps Satellite view

 

Copyright © 2004-2019 Karl L. Swartz. All rights reserved.
The Great Circle Mapper name and logo are trademarks of the Great Circle Mapper.
All other trademarks mentioned herein belong to their respective owners.
Please see credits for attibutions and further copyright information.

  Follow gcmap on Facebook Follow gcmap on Twitter GCmap on LinkedIn

hCard Microformat

Geo Microformat